createdAt,value
2023-01-26T00:00:23.675Z,1014.31
2023-01-26T00:01:23.663Z,1014.34
2023-01-26T00:02:23.672Z,1014.33
2023-01-26T00:03:23.737Z,1014.30
2023-01-26T00:04:23.666Z,1014.34
2023-01-26T00:05:23.650Z,1014.34
2023-01-26T00:06:23.660Z,1014.41
2023-01-26T00:07:23.656Z,1014.39
2023-01-26T00:08:24.326Z,1014.41
2023-01-26T00:09:23.620Z,1014.40
2023-01-26T00:10:23.619Z,1014.47
2023-01-26T00:11:23.608Z,1014.45
2023-01-26T00:12:23.619Z,1014.42
2023-01-26T00:13:23.599Z,1014.41
2023-01-26T00:14:24.459Z,1014.33
2023-01-26T00:15:24.503Z,1014.29
2023-01-26T00:16:23.646Z,1014.31
2023-01-26T00:17:23.576Z,1014.31
2023-01-26T00:18:23.597Z,1014.28
2023-01-26T00:19:23.583Z,1014.31
2023-01-26T00:20:23.568Z,1014.31
2023-01-26T00:21:23.547Z,1014.27
2023-01-26T00:22:23.536Z,1014.23
2023-01-26T00:23:23.584Z,1014.20
2023-01-26T00:24:24.759Z,1014.23
2023-01-26T00:25:24.046Z,1014.19
2023-01-26T00:26:23.527Z,1014.16
2023-01-26T00:27:24.001Z,1014.12
2023-01-26T00:28:23.513Z,1014.15
2023-01-26T00:29:24.298Z,1014.11
2023-01-26T00:30:23.921Z,1014.16
2023-01-26T00:31:23.534Z,1014.10
2023-01-26T00:32:23.483Z,1014.13
2023-01-26T00:33:23.483Z,1014.14
2023-01-26T00:34:23.472Z,1014.09
2023-01-26T00:35:23.451Z,1014.09
2023-01-26T00:36:23.488Z,1014.06
2023-01-26T00:37:23.440Z,1014.06
2023-01-26T00:38:23.469Z,1014.01
2023-01-26T00:39:23.438Z,1014.05
2023-01-26T00:40:23.444Z,1014.02
2023-01-26T00:41:23.419Z,1013.99
2023-01-26T00:42:23.429Z,1013.98
2023-01-26T00:43:24.869Z,1013.96
2023-01-26T00:44:23.419Z,1013.97
2023-01-26T00:45:23.409Z,1014.02
2023-01-26T00:46:23.422Z,1014.03
2023-01-26T00:47:23.387Z,1013.99
2023-01-26T00:48:24.770Z,1014.01
2023-01-26T00:49:23.401Z,1013.94
2023-01-26T00:50:23.379Z,1013.92
2023-01-26T00:51:23.370Z,1013.95
2023-01-26T00:52:23.384Z,1013.90
2023-01-26T00:53:23.359Z,1013.96
2023-01-26T00:54:23.375Z,1013.86
2023-01-26T00:55:23.356Z,1013.87
2023-01-26T00:56:23.752Z,1013.86
2023-01-26T00:57:23.454Z,1013.90
2023-01-26T00:58:23.335Z,1013.83
2023-01-26T00:59:23.413Z,1013.87
2023-01-26T01:00:23.315Z,1013.83
2023-01-26T01:01:23.322Z,1013.78
2023-01-26T01:02:23.304Z,1013.78
2023-01-26T01:03:23.292Z,1013.70
2023-01-26T01:04:23.377Z,1013.74
2023-01-26T01:05:23.288Z,1013.71
2023-01-26T01:06:23.285Z,1013.78
2023-01-26T01:07:23.274Z,1013.84
2023-01-26T01:08:23.280Z,1013.83
2023-01-26T01:09:23.846Z,1013.81
2023-01-26T01:10:23.258Z,1013.83
2023-01-26T01:11:23.240Z,1013.87
2023-01-26T01:12:23.260Z,1013.79
2023-01-26T01:13:23.250Z,1013.79
2023-01-26T01:14:23.281Z,1013.69
2023-01-26T01:15:23.225Z,1013.71
2023-01-26T01:16:23.267Z,1013.68
2023-01-26T01:17:23.219Z,1013.65
2023-01-26T01:18:23.380Z,1013.59
2023-01-26T01:19:23.224Z,1013.57
2023-01-26T01:20:23.204Z,1013.55
2023-01-26T01:21:23.189Z,1013.51
2023-01-26T01:22:23.211Z,1013.53
2023-01-26T01:23:23.181Z,1013.47
2023-01-26T01:24:23.287Z,1013.46
2023-01-26T01:25:23.155Z,1013.46
2023-01-26T01:26:23.234Z,1013.52
2023-01-26T01:27:23.345Z,1013.48
2023-01-26T01:28:23.355Z,1013.41
2023-01-26T01:29:23.356Z,1013.45
2023-01-26T01:30:23.365Z,1013.44
2023-01-26T01:31:23.258Z,1013.43
2023-01-26T01:32:23.384Z,1013.48
2023-01-26T01:33:23.120Z,1013.42
2023-01-26T01:34:23.122Z,1013.42
2023-01-26T01:35:23.100Z,1013.45
2023-01-26T01:36:23.116Z,1013.43
2023-01-26T01:37:23.082Z,1013.44
2023-01-26T01:38:23.112Z,1013.49
2023-01-26T01:39:23.088Z,1013.39
2023-01-26T01:40:23.131Z,1013.37
2023-01-26T01:41:23.061Z,1013.41
2023-01-26T01:42:23.067Z,1013.38
2023-01-26T01:43:23.049Z,1013.34
2023-01-26T01:44:23.523Z,1013.34
2023-01-26T01:45:23.041Z,1013.37
2023-01-26T01:46:23.079Z,1013.33
2023-01-26T01:47:23.033Z,1013.34
2023-01-26T01:48:23.303Z,1013.33
2023-01-26T01:49:23.034Z,1013.31
2023-01-26T01:50:23.012Z,1013.28
2023-01-26T01:51:22.997Z,1013.30
2023-01-26T01:52:23.001Z,1013.27
2023-01-26T01:53:22.997Z,1013.29
2023-01-26T01:54:23.005Z,1013.31
2023-01-26T01:55:23.006Z,1013.26
2023-01-26T01:56:23.002Z,1013.29
2023-01-26T01:57:22.970Z,1013.32
2023-01-26T01:58:22.964Z,1013.25
2023-01-26T01:59:23.155Z,1013.23
2023-01-26T02:00:22.982Z,1013.23
2023-01-26T02:01:23.174Z,1013.24
2023-01-26T02:02:22.943Z,1013.21
2023-01-26T02:03:22.962Z,1013.21
2023-01-26T02:04:23.199Z,1013.21
2023-01-26T02:05:22.918Z,1013.20
2023-01-26T02:06:22.911Z,1013.18
2023-01-26T02:07:22.914Z,1013.20
2023-01-26T02:08:22.903Z,1013.18
2023-01-26T02:09:23.230Z,1013.14
2023-01-26T02:10:22.891Z,1013.12
2023-01-26T02:11:22.890Z,1013.09
2023-01-26T02:12:22.881Z,1013.08
2023-01-26T02:13:23.512Z,1013.11
2023-01-26T02:14:22.880Z,1013.04
2023-01-26T02:15:23.269Z,1013.00
2023-01-26T02:16:23.436Z,1013.05
2023-01-26T02:17:22.989Z,1013.01
2023-01-26T02:18:22.837Z,1013.08
2023-01-26T02:19:22.856Z,1012.99
2023-01-26T02:20:22.832Z,1012.98
2023-01-26T02:21:22.821Z,1012.95
2023-01-26T02:22:22.817Z,1012.98
2023-01-26T02:23:22.810Z,1012.95
2023-01-26T02:24:22.913Z,1012.91
2023-01-26T02:25:22.797Z,1012.94
2023-01-26T02:26:22.835Z,1012.88
2023-01-26T02:27:23.466Z,1012.88
2023-01-26T02:28:22.792Z,1012.91
2023-01-26T02:29:22.784Z,1012.90
2023-01-26T02:30:22.768Z,1012.91
2023-01-26T02:31:22.941Z,1012.91
2023-01-26T02:32:22.985Z,1012.93
2023-01-26T02:33:22.753Z,1012.96
2023-01-26T02:34:23.004Z,1013.01
2023-01-26T02:35:23.128Z,1013.03
2023-01-26T02:36:22.736Z,1012.95
2023-01-26T02:37:22.731Z,1012.94
2023-01-26T02:38:22.733Z,1012.81
2023-01-26T02:39:22.850Z,1012.81
2023-01-26T02:40:22.832Z,1012.79
2023-01-26T02:41:22.699Z,1012.77
2023-01-26T02:42:22.698Z,1012.77
2023-01-26T02:43:22.681Z,1012.77
2023-01-26T02:44:23.282Z,1012.75
2023-01-26T02:45:23.504Z,1012.80
2023-01-26T02:46:23.622Z,1012.79
2023-01-26T02:47:23.593Z,1012.76
2023-01-26T02:48:23.499Z,1012.76
2023-01-26T02:49:22.908Z,1012.76
2023-01-26T02:50:23.560Z,1012.80
2023-01-26T02:51:22.732Z,1012.81
2023-01-26T02:52:22.852Z,1012.86
2023-01-26T02:53:22.648Z,1012.89
2023-01-26T02:54:23.428Z,1012.87
2023-01-26T02:55:23.595Z,1012.84
2023-01-26T02:56:23.496Z,1012.82
2023-01-26T02:57:22.607Z,1012.84
2023-01-26T02:58:23.388Z,1012.81
2023-01-26T02:59:22.768Z,1012.82
2023-01-26T03:00:23.625Z,1012.81
2023-01-26T03:01:23.402Z,1012.82
2023-01-26T03:02:23.494Z,1012.75
2023-01-26T03:03:23.600Z,1012.84
2023-01-26T03:04:23.502Z,1012.71
2023-01-26T03:05:22.653Z,1012.77
2023-01-26T03:06:22.610Z,1012.72
2023-01-26T03:07:22.544Z,1012.82
2023-01-26T03:08:22.622Z,1012.81
2023-01-26T03:09:22.639Z,1012.82
2023-01-26T03:10:22.531Z,1012.79
2023-01-26T03:11:22.742Z,1012.83
2023-01-26T03:12:22.511Z,1012.85
2023-01-26T03:13:22.671Z,1012.85
2023-01-26T03:14:22.692Z,1012.77
2023-01-26T03:15:22.495Z,1012.77
2023-01-26T03:16:22.555Z,1012.82
2023-01-26T03:17:22.990Z,1012.82
2023-01-26T03:18:22.803Z,1012.73
2023-01-26T03:19:23.012Z,1012.78
2023-01-26T03:20:23.118Z,1012.80
2023-01-26T03:21:22.828Z,1012.80
2023-01-26T03:22:23.238Z,1012.78
2023-01-26T03:23:22.639Z,1012.75
2023-01-26T03:24:23.436Z,1012.76
2023-01-26T03:25:22.430Z,1012.85
2023-01-26T03:26:22.438Z,1012.88
2023-01-26T03:27:23.353Z,1012.86
2023-01-26T03:28:23.238Z,1012.86
2023-01-26T03:29:23.409Z,1012.85
2023-01-26T03:30:23.331Z,1012.91
2023-01-26T03:31:22.478Z,1012.85
2023-01-26T03:32:22.492Z,1012.88
2023-01-26T03:33:23.042Z,1012.82
2023-01-26T03:34:22.385Z,1012.86
2023-01-26T03:35:23.039Z,1012.84
2023-01-26T03:36:22.414Z,1012.87
2023-01-26T03:37:22.361Z,1012.83
2023-01-26T03:38:22.433Z,1012.79
2023-01-26T03:39:22.344Z,1012.79
2023-01-26T03:40:23.391Z,1012.76
2023-01-26T03:41:23.272Z,1012.85
2023-01-26T03:42:23.183Z,1012.83
2023-01-26T03:43:22.452Z,1012.84
2023-01-26T03:44:22.314Z,1012.85
2023-01-26T03:45:22.997Z,1012.79
2023-01-26T03:46:22.360Z,1012.83
2023-01-26T03:47:22.290Z,1012.88
2023-01-26T03:48:22.294Z,1012.87
2023-01-26T03:49:22.285Z,1012.85
2023-01-26T03:50:22.279Z,1012.85
2023-01-26T03:51:22.309Z,1012.88
2023-01-26T03:52:22.321Z,1012.88
2023-01-26T03:53:22.332Z,1012.93
2023-01-26T03:54:22.249Z,1012.87
2023-01-26T03:55:22.248Z,1012.90
2023-01-26T03:56:22.342Z,1012.88
2023-01-26T03:57:22.357Z,1012.82
2023-01-26T03:58:22.230Z,1012.82
2023-01-26T03:59:22.376Z,1012.84
2023-01-26T04:00:22.269Z,1012.86
2023-01-26T04:01:22.207Z,1012.85
2023-01-26T04:02:22.425Z,1012.83
2023-01-26T04:03:22.211Z,1012.79
2023-01-26T04:04:22.205Z,1012.76
2023-01-26T04:05:22.186Z,1012.82
2023-01-26T04:06:22.174Z,1012.77
2023-01-26T04:07:22.163Z,1012.80
2023-01-26T04:08:22.354Z,1012.84
2023-01-26T04:09:22.147Z,1012.84
2023-01-26T04:10:22.176Z,1012.78
2023-01-26T04:11:22.140Z,1012.82
2023-01-26T04:12:22.143Z,1012.85
2023-01-26T04:13:22.144Z,1012.80
2023-01-26T04:14:22.128Z,1012.80
2023-01-26T04:15:22.151Z,1012.79
2023-01-26T04:16:22.156Z,1012.70
2023-01-26T04:17:22.200Z,1012.69
2023-01-26T04:18:22.092Z,1012.71
2023-01-26T04:19:22.098Z,1012.64
2023-01-26T04:20:22.106Z,1012.68
2023-01-26T04:21:22.082Z,1012.67
2023-01-26T04:22:22.234Z,1012.72
2023-01-26T04:23:22.169Z,1012.73
2023-01-26T04:24:22.125Z,1012.73
2023-01-26T04:25:22.093Z,1012.71
2023-01-26T04:26:22.045Z,1012.69
2023-01-26T04:27:22.075Z,1012.76
2023-01-26T04:28:22.267Z,1012.71
2023-01-26T04:29:23.976Z,1012.75
2023-01-26T04:30:22.060Z,1012.66
2023-01-26T04:31:22.154Z,1012.64
2023-01-26T04:32:22.015Z,1012.67
2023-01-26T04:33:22.040Z,1012.67
2023-01-26T04:34:22.006Z,1012.65
2023-01-26T04:35:22.019Z,1012.67
2023-01-26T04:36:21.994Z,1012.71
2023-01-26T04:37:21.979Z,1012.69
2023-01-26T04:38:21.964Z,1012.68
2023-01-26T04:39:22.039Z,1012.65
2023-01-26T04:40:22.089Z,1012.65
2023-01-26T04:41:21.953Z,1012.69
2023-01-26T04:42:21.943Z,1012.71
2023-01-26T04:43:22.620Z,1012.70
2023-01-26T04:44:21.934Z,1012.77
2023-01-26T04:45:21.976Z,1012.70
2023-01-26T04:46:21.946Z,1012.68
2023-01-26T04:47:21.925Z,1012.68
2023-01-26T04:48:21.913Z,1012.66
2023-01-26T04:49:21.911Z,1012.69
2023-01-26T04:50:21.923Z,1012.68
2023-01-26T04:51:21.917Z,1012.65
2023-01-26T04:52:21.890Z,1012.73
2023-01-26T04:53:22.055Z,1012.76
2023-01-26T04:54:21.879Z,1012.67
2023-01-26T04:55:21.876Z,1012.60
2023-01-26T04:56:21.897Z,1012.63
2023-01-26T04:57:21.867Z,1012.73
2023-01-26T04:58:21.849Z,1012.62
2023-01-26T04:59:21.858Z,1012.56
2023-01-26T05:00:21.838Z,1012.59
2023-01-26T05:01:21.906Z,1012.56
2023-01-26T05:02:21.826Z,1012.60
2023-01-26T05:03:21.904Z,1012.55
2023-01-26T05:04:21.920Z,1012.54
2023-01-26T05:05:21.834Z,1012.52
2023-01-26T05:06:21.855Z,1012.53
2023-01-26T05:07:21.787Z,1012.54
2023-01-26T05:08:21.778Z,1012.59
2023-01-26T05:09:21.774Z,1012.52
2023-01-26T05:10:21.938Z,1012.58
2023-01-26T05:11:21.983Z,1012.54
2023-01-26T05:12:21.793Z,1012.58
2023-01-26T05:13:21.889Z,1012.53
2023-01-26T05:14:21.940Z,1012.46
2023-01-26T05:15:22.062Z,1012.47
2023-01-26T05:16:21.755Z,1012.45
2023-01-26T05:17:21.852Z,1012.48
2023-01-26T05:18:21.792Z,1012.45
2023-01-26T05:19:21.781Z,1012.50
2023-01-26T05:20:21.922Z,1012.45
2023-01-26T05:21:21.727Z,1012.42
2023-01-26T05:22:22.137Z,1012.48
2023-01-26T05:23:22.610Z,1012.43
2023-01-26T05:24:21.744Z,1012.47
2023-01-26T05:25:22.172Z,1012.48
2023-01-26T05:26:22.183Z,1012.45
2023-01-26T05:27:21.974Z,1012.44
2023-01-26T05:28:21.659Z,1012.50
2023-01-26T05:29:22.218Z,1012.49
2023-01-26T05:30:21.648Z,1012.51
2023-01-26T05:31:21.705Z,1012.49
2023-01-26T05:32:21.663Z,1012.57
2023-01-26T05:33:22.290Z,1012.56
2023-01-26T05:34:22.080Z,1012.56
2023-01-26T05:35:21.626Z,1012.62
2023-01-26T05:36:21.621Z,1012.64
2023-01-26T05:37:22.335Z,1012.58
2023-01-26T05:38:22.335Z,1012.53
2023-01-26T05:39:21.895Z,1012.59
2023-01-26T05:40:21.594Z,1012.61
2023-01-26T05:41:21.641Z,1012.59
2023-01-26T05:42:21.667Z,1012.57
2023-01-26T05:43:21.584Z,1012.64
2023-01-26T05:44:21.572Z,1012.57
2023-01-26T05:45:21.593Z,1012.66
2023-01-26T05:46:21.599Z,1012.62
2023-01-26T05:47:21.569Z,1012.61
2023-01-26T05:48:21.543Z,1012.63
2023-01-26T05:49:21.630Z,1012.62
2023-01-26T05:50:21.661Z,1012.57
2023-01-26T05:51:21.622Z,1012.56
2023-01-26T05:52:21.529Z,1012.62
2023-01-26T05:53:21.543Z,1012.64
2023-01-26T05:54:21.650Z,1012.67
2023-01-26T05:55:21.711Z,1012.67
2023-01-26T05:56:21.492Z,1012.73
2023-01-26T05:57:21.508Z,1012.74
2023-01-26T05:58:21.759Z,1012.72
2023-01-26T05:59:21.718Z,1012.70
2023-01-26T06:00:21.783Z,1012.77
2023-01-26T06:01:21.820Z,1012.74
2023-01-26T06:02:21.873Z,1012.76
2023-01-26T06:03:21.602Z,1012.78
2023-01-26T06:04:21.875Z,1012.75
2023-01-26T06:05:21.456Z,1012.77
2023-01-26T06:06:21.568Z,1012.77
2023-01-26T06:07:21.564Z,1012.80
2023-01-26T06:08:21.887Z,1012.75
2023-01-26T06:09:21.512Z,1012.78
2023-01-26T06:10:21.746Z,1012.73
2023-01-26T06:11:21.666Z,1012.73
2023-01-26T06:12:21.476Z,1012.83
2023-01-26T06:13:21.583Z,1012.77
2023-01-26T06:14:21.403Z,1012.78
2023-01-26T06:15:21.400Z,1012.72
2023-01-26T06:16:21.453Z,1012.70
2023-01-26T06:17:21.391Z,1012.74
2023-01-26T06:18:21.385Z,1012.78
2023-01-26T06:19:21.369Z,1012.74
2023-01-26T06:20:21.526Z,1012.74
2023-01-26T06:21:21.373Z,1012.81
2023-01-26T06:22:21.482Z,1012.83
2023-01-26T06:23:21.352Z,1012.82
2023-01-26T06:24:21.551Z,1012.81
2023-01-26T06:25:21.518Z,1012.79
2023-01-26T06:26:21.535Z,1012.71
2023-01-26T06:27:21.351Z,1012.78
2023-01-26T06:28:21.398Z,1012.69
2023-01-26T06:29:21.308Z,1012.70
2023-01-26T06:30:21.569Z,1012.67
2023-01-26T06:31:21.670Z,1012.64
2023-01-26T06:32:21.620Z,1012.65
2023-01-26T06:33:21.615Z,1012.68
2023-01-26T06:34:21.419Z,1012.67
2023-01-26T06:35:21.641Z,1012.69
2023-01-26T06:36:21.657Z,1012.68
2023-01-26T06:37:21.667Z,1012.73
2023-01-26T06:38:21.661Z,1012.73
2023-01-26T06:39:21.474Z,1012.75
2023-01-26T06:40:21.710Z,1012.74
2023-01-26T06:41:21.735Z,1012.75
2023-01-26T06:42:21.243Z,1012.70
2023-01-26T06:43:21.755Z,1012.72
2023-01-26T06:44:21.217Z,1012.76
2023-01-26T06:45:21.216Z,1012.73
2023-01-26T06:46:21.211Z,1012.78
2023-01-26T06:47:22.645Z,1012.75
2023-01-26T06:48:21.803Z,1012.74
2023-01-26T06:49:21.345Z,1012.74
2023-01-26T06:50:21.280Z,1012.77
2023-01-26T06:51:21.591Z,1012.79
2023-01-26T06:52:21.336Z,1012.82
2023-01-26T06:53:21.321Z,1012.79
2023-01-26T06:54:21.640Z,1012.80
2023-01-26T06:55:21.147Z,1012.78
2023-01-26T06:56:21.178Z,1012.72
2023-01-26T06:57:21.213Z,1012.72
2023-01-26T06:58:21.150Z,1012.75
2023-01-26T06:59:21.132Z,1012.75
2023-01-26T07:00:21.319Z,1012.75
2023-01-26T07:01:21.317Z,1012.73
2023-01-26T07:02:21.393Z,1012.74
2023-01-26T07:03:21.279Z,1012.74
2023-01-26T07:04:21.088Z,1012.73
2023-01-26T07:05:21.097Z,1012.79
2023-01-26T07:06:21.092Z,1012.83
2023-01-26T07:07:21.076Z,1012.84
2023-01-26T07:08:21.453Z,1012.90
2023-01-26T07:09:21.333Z,1012.86
2023-01-26T07:10:21.836Z,1012.84
2023-01-26T07:11:21.338Z,1012.90
2023-01-26T07:12:21.035Z,1012.86
2023-01-26T07:13:21.441Z,1012.90
2023-01-26T07:14:21.395Z,1012.92
2023-01-26T07:15:21.881Z,1012.86
2023-01-26T07:16:21.439Z,1012.93
2023-01-26T07:17:21.393Z,1012.91
2023-01-26T07:18:21.025Z,1012.91
2023-01-26T07:19:21.392Z,1012.93
2023-01-26T07:20:21.161Z,1012.89
2023-01-26T07:21:21.071Z,1012.82
2023-01-26T07:22:21.631Z,1012.85
2023-01-26T07:23:21.009Z,1012.77
2023-01-26T07:24:21.031Z,1012.81
2023-01-26T07:25:21.041Z,1012.78
2023-01-26T07:26:21.243Z,1012.70
2023-01-26T07:27:21.501Z,1012.73
2023-01-26T07:28:21.079Z,1012.71
2023-01-26T07:29:20.960Z,1012.71
2023-01-26T07:30:21.772Z,1012.75
2023-01-26T07:31:21.896Z,1012.76
2023-01-26T07:32:21.178Z,1012.73
2023-01-26T07:33:21.064Z,1012.76
2023-01-26T07:34:20.918Z,1012.75
2023-01-26T07:35:20.968Z,1012.72
2023-01-26T07:36:21.015Z,1012.74
2023-01-26T07:37:21.005Z,1012.79
2023-01-26T07:38:20.956Z,1012.73
2023-01-26T07:39:21.173Z,1012.72
2023-01-26T07:40:21.223Z,1012.72
2023-01-26T07:41:20.902Z,1012.73
2023-01-26T07:42:20.845Z,1012.74
2023-01-26T07:43:20.926Z,1012.77
2023-01-26T07:44:21.394Z,1012.78
2023-01-26T07:45:21.209Z,1012.79
2023-01-26T07:46:21.284Z,1012.73
2023-01-26T07:47:21.274Z,1012.74
2023-01-26T07:48:21.005Z,1012.79
2023-01-26T07:49:21.393Z,1012.79
2023-01-26T07:50:20.802Z,1012.85
2023-01-26T07:51:20.814Z,1012.84
2023-01-26T07:52:20.925Z,1012.84
2023-01-26T07:53:21.317Z,1012.82
2023-01-26T07:54:21.361Z,1012.89
2023-01-26T07:55:21.020Z,1012.87
2023-01-26T07:56:21.005Z,1012.91
2023-01-26T07:57:21.279Z,1012.90
2023-01-26T07:58:20.918Z,1012.88
2023-01-26T07:59:21.092Z,1012.94
2023-01-26T08:00:20.756Z,1012.86
2023-01-26T08:01:21.642Z,1012.90
2023-01-26T08:02:20.945Z,1012.88
2023-01-26T08:03:21.031Z,1012.87
2023-01-26T08:04:21.144Z,1012.85
2023-01-26T08:05:21.747Z,1012.85
2023-01-26T08:06:21.315Z,1012.86
2023-01-26T08:07:20.719Z,1012.81
2023-01-26T08:08:20.696Z,1012.88
2023-01-26T08:09:21.502Z,1012.84
2023-01-26T08:10:20.702Z,1012.82
2023-01-26T08:11:20.678Z,1012.83
2023-01-26T08:12:20.707Z,1012.84
2023-01-26T08:13:30.073Z,1012.84
2023-01-26T08:14:20.715Z,1012.87
2023-01-26T08:15:20.726Z,1012.86
2023-01-26T08:16:20.771Z,1012.85
2023-01-26T08:17:20.654Z,1012.85
2023-01-26T08:18:20.635Z,1012.91
2023-01-26T08:19:22.142Z,1012.87
2023-01-26T08:20:20.625Z,1012.85
2023-01-26T08:21:20.682Z,1012.87
2023-01-26T08:22:20.715Z,1012.87
2023-01-26T08:23:20.713Z,1012.86
2023-01-26T08:24:20.744Z,1012.89
2023-01-26T08:25:20.591Z,1012.85
2023-01-26T08:26:20.928Z,1012.91
2023-01-26T08:27:20.592Z,1012.91
2023-01-26T08:28:22.030Z,1012.96
2023-01-26T08:29:20.744Z,1012.85
2023-01-26T08:30:20.805Z,1012.95
2023-01-26T08:31:20.942Z,1012.97
2023-01-26T08:32:20.822Z,1013.01
2023-01-26T08:33:20.564Z,1013.00
2023-01-26T08:34:20.649Z,1012.98
2023-01-26T08:35:20.763Z,1012.93
2023-01-26T08:36:22.622Z,1012.89
2023-01-26T08:37:20.877Z,1012.93
2023-01-26T08:38:20.526Z,1012.84
2023-01-26T08:39:20.546Z,1012.88
2023-01-26T08:40:20.927Z,1012.88
2023-01-26T08:41:20.608Z,1012.90
2023-01-26T08:42:22.566Z,1012.84
2023-01-26T08:43:20.485Z,1012.81
2023-01-26T08:44:20.496Z,1012.82
2023-01-26T08:45:20.629Z,1012.85
2023-01-26T08:46:20.646Z,1012.83
2023-01-26T08:47:20.797Z,1012.92
2023-01-26T08:48:20.534Z,1012.95
2023-01-26T08:49:20.539Z,1012.91
2023-01-26T08:50:20.586Z,1012.90
2023-01-26T08:51:20.434Z,1012.94
2023-01-26T08:52:20.484Z,1012.94
2023-01-26T08:53:20.591Z,1012.90
2023-01-26T08:54:20.651Z,1012.99
2023-01-26T08:55:20.401Z,1013.06
2023-01-26T08:56:20.722Z,1013.03
2023-01-26T08:57:20.435Z,1012.99
2023-01-26T08:58:20.551Z,1013.06
2023-01-26T08:59:20.851Z,1013.05
2023-01-26T09:00:20.400Z,1013.02
2023-01-26T09:01:20.841Z,1013.03
2023-01-26T09:02:20.507Z,1013.05
2023-01-26T09:03:20.518Z,1013.09
2023-01-26T09:04:20.439Z,1013.06
2023-01-26T09:05:21.069Z,1013.05
2023-01-26T09:06:20.447Z,1013.11
2023-01-26T09:07:21.014Z,1013.11
2023-01-26T09:08:20.529Z,1013.02
2023-01-26T09:09:20.678Z,1013.07
2023-01-26T09:10:20.327Z,1013.03
2023-01-26T09:11:20.680Z,1013.08
2023-01-26T09:12:20.308Z,1013.09
2023-01-26T09:13:20.316Z,1013.15
2023-01-26T09:14:20.882Z,1013.11
2023-01-26T09:15:20.297Z,1013.07
2023-01-26T09:16:20.373Z,1013.09
2023-01-26T09:17:21.042Z,1013.11
2023-01-26T09:18:20.285Z,1013.12
2023-01-26T09:19:20.329Z,1013.06
2023-01-26T09:20:20.342Z,1013.09
2023-01-26T09:21:20.343Z,1013.12
2023-01-26T09:22:20.254Z,1013.10
2023-01-26T09:23:20.253Z,1013.16
2023-01-26T09:24:20.285Z,1013.13
2023-01-26T09:25:20.265Z,1013.15
2023-01-26T09:26:20.277Z,1013.12
2023-01-26T09:27:20.220Z,1013.10
2023-01-26T09:28:20.211Z,1013.17
2023-01-26T09:29:20.214Z,1013.14
2023-01-26T09:30:20.364Z,1013.10
2023-01-26T09:31:20.273Z,1013.15
2023-01-26T09:32:20.228Z,1013.05
2023-01-26T09:33:20.325Z,1013.10
2023-01-26T09:34:20.218Z,1013.08
2023-01-26T09:35:20.162Z,1013.08
2023-01-26T09:36:20.405Z,1013.14
2023-01-26T09:37:20.163Z,1013.07
2023-01-26T09:38:20.432Z,1013.12
2023-01-26T09:39:20.427Z,1013.11
2023-01-26T09:40:20.135Z,1013.15
2023-01-26T09:41:20.139Z,1013.19
2023-01-26T09:42:20.379Z,1013.16
2023-01-26T09:43:20.487Z,1013.15
2023-01-26T09:44:20.444Z,1013.13
2023-01-26T09:45:20.514Z,1013.14
2023-01-26T09:46:20.134Z,1013.16
2023-01-26T09:47:20.544Z,1013.16
2023-01-26T09:48:20.559Z,1013.12
2023-01-26T09:49:20.335Z,1013.14
2023-01-26T09:50:20.408Z,1013.13
2023-01-26T09:51:20.594Z,1013.14
2023-01-26T09:52:20.063Z,1013.14
2023-01-26T09:53:20.610Z,1013.22
2023-01-26T09:54:20.624Z,1013.12
2023-01-26T09:55:20.644Z,1013.14
2023-01-26T09:56:20.651Z,1013.15
2023-01-26T09:57:20.633Z,1013.08
2023-01-26T09:58:20.031Z,1013.12
2023-01-26T09:59:20.229Z,1013.13
2023-01-26T10:00:20.018Z,1013.18
2023-01-26T10:01:20.102Z,1013.09
2023-01-26T10:02:20.028Z,1013.11
2023-01-26T10:03:20.009Z,1013.04
2023-01-26T10:04:20.023Z,1013.06
2023-01-26T10:05:20.029Z,1013.04
2023-01-26T10:06:19.977Z,1013.00
2023-01-26T10:07:19.959Z,1013.02
2023-01-26T10:08:19.978Z,1013.02
2023-01-26T10:09:20.029Z,1013.00
2023-01-26T10:10:20.065Z,1013.01
2023-01-26T10:11:19.938Z,1013.04
2023-01-26T10:12:20.059Z,1012.99
2023-01-26T10:13:20.066Z,1012.99
2023-01-26T10:14:20.088Z,1012.97
2023-01-26T10:15:20.099Z,1013.02
2023-01-26T10:16:20.108Z,1012.89
2023-01-26T10:17:20.117Z,1012.92
2023-01-26T10:18:20.140Z,1012.84
2023-01-26T10:19:20.146Z,1012.88
2023-01-26T10:20:20.166Z,1012.90
2023-01-26T10:21:20.173Z,1012.86
2023-01-26T10:22:19.993Z,1012.84
2023-01-26T10:23:20.193Z,1012.84
2023-01-26T10:24:19.914Z,1012.89
2023-01-26T10:25:19.998Z,1012.80
2023-01-26T10:26:20.194Z,1012.81
2023-01-26T10:27:20.035Z,1012.89
2023-01-26T10:28:20.265Z,1012.76
2023-01-26T10:29:20.272Z,1012.78
2023-01-26T10:30:20.064Z,1012.73
2023-01-26T10:31:20.463Z,1012.72
2023-01-26T10:32:19.825Z,1012.74
2023-01-26T10:33:19.838Z,1012.71
2023-01-26T10:34:19.833Z,1012.67
2023-01-26T10:35:19.809Z,1012.70
2023-01-26T10:36:19.817Z,1012.73
2023-01-26T10:37:19.778Z,1012.65
2023-01-26T10:38:19.788Z,1012.68
2023-01-26T10:39:19.791Z,1012.72
2023-01-26T10:40:19.798Z,1012.70
2023-01-26T10:41:19.813Z,1012.73
2023-01-26T10:42:19.757Z,1012.72
2023-01-26T10:43:19.782Z,1012.65
2023-01-26T10:44:19.828Z,1012.68
2023-01-26T10:45:19.747Z,1012.69
2023-01-26T10:46:19.881Z,1012.67
2023-01-26T10:47:19.880Z,1012.71
2023-01-26T10:48:19.716Z,1012.70
2023-01-26T10:49:19.698Z,1012.72
2023-01-26T10:50:19.928Z,1012.73
2023-01-26T10:51:19.704Z,1012.73
2023-01-26T10:52:19.921Z,1012.78
2023-01-26T10:53:19.892Z,1012.75
2023-01-26T10:54:19.966Z,1012.78
2023-01-26T10:55:19.685Z,1012.79
2023-01-26T10:56:19.992Z,1012.81
2023-01-26T10:57:20.013Z,1012.77
2023-01-26T10:58:20.022Z,1012.76
2023-01-26T10:59:19.672Z,1012.80
2023-01-26T11:00:19.663Z,1012.70
2023-01-26T11:01:19.888Z,1012.73
2023-01-26T11:02:19.815Z,1012.76
2023-01-26T11:03:20.094Z,1012.73
2023-01-26T11:04:19.611Z,1012.72
2023-01-26T11:05:19.788Z,1012.71
2023-01-26T11:06:20.112Z,1012.62
2023-01-26T11:07:19.652Z,1012.60
2023-01-26T11:08:19.625Z,1012.64
2023-01-26T11:09:19.638Z,1012.58
2023-01-26T11:10:19.618Z,1012.58
2023-01-26T11:11:20.190Z,1012.63
2023-01-26T11:12:19.871Z,1012.59
2023-01-26T11:13:19.749Z,1012.62
2023-01-26T11:14:19.601Z,1012.54
2023-01-26T11:15:19.672Z,1012.63
2023-01-26T11:16:19.991Z,1012.58
2023-01-26T11:17:20.195Z,1012.57
2023-01-26T11:18:20.113Z,1012.63
2023-01-26T11:19:21.004Z,1012.57
2023-01-26T11:20:19.548Z,1012.56
2023-01-26T11:21:19.538Z,1012.59
2023-01-26T11:22:19.596Z,1012.49
2023-01-26T11:23:19.529Z,1012.47
2023-01-26T11:24:19.691Z,1012.48
2023-01-26T11:25:19.726Z,1012.47
2023-01-26T11:26:19.538Z,1012.33
2023-01-26T11:27:19.565Z,1012.41
2023-01-26T11:28:19.594Z,1012.38
2023-01-26T11:29:19.914Z,1012.34
2023-01-26T11:30:19.774Z,1012.31
2023-01-26T11:31:19.868Z,1012.25
2023-01-26T11:32:19.990Z,1012.31
2023-01-26T11:33:20.112Z,1012.34
2023-01-26T11:34:19.537Z,1012.32
2023-01-26T11:35:19.442Z,1012.31
2023-01-26T11:36:19.421Z,1012.33
2023-01-26T11:37:19.424Z,1012.29
2023-01-26T11:38:20.236Z,1012.25
2023-01-26T11:39:19.489Z,1012.24
2023-01-26T11:40:19.541Z,1012.29
2023-01-26T11:41:19.427Z,1012.24
2023-01-26T11:42:20.379Z,1012.21
2023-01-26T11:43:19.380Z,1012.19
2023-01-26T11:44:19.936Z,1012.22
2023-01-26T11:45:19.684Z,1012.22
2023-01-26T11:46:19.912Z,1012.23
2023-01-26T11:47:19.458Z,1012.15
2023-01-26T11:48:19.469Z,1012.23
2023-01-26T11:49:19.913Z,1012.22
2023-01-26T11:50:19.412Z,1012.20
2023-01-26T11:51:20.219Z,1012.20
2023-01-26T11:52:19.372Z,1012.19
2023-01-26T11:53:19.476Z,1012.18
2023-01-26T11:54:19.330Z,1012.18
2023-01-26T11:55:19.317Z,1012.20
2023-01-26T11:56:19.319Z,1012.17
2023-01-26T11:57:19.326Z,1012.25
2023-01-26T11:58:19.290Z,1012.19
2023-01-26T11:59:19.322Z,1012.23
2023-01-26T12:00:29.555Z,1012.16
2023-01-26T12:01:19.392Z,1012.17
2023-01-26T12:02:19.484Z,1012.14
2023-01-26T12:03:19.504Z,1012.21
2023-01-26T12:04:19.535Z,1012.18
2023-01-26T12:05:19.590Z,1012.19